createdAt,value
2018-07-24T00:04:24.125Z,11.43
2018-07-24T00:08:58.325Z,10.13
2018-07-24T00:13:32.644Z,10.85
2018-07-24T00:18:08.091Z,10.50
2018-07-24T00:22:42.243Z,11.85
2018-07-24T00:27:17.556Z,11.57
2018-07-24T00:31:53.116Z,11.05
2018-07-24T00:36:27.487Z,10.53
2018-07-24T00:41:03.027Z,11.70
2018-07-24T00:45:37.263Z,14.95
2018-07-24T00:50:12.418Z,11.85
2018-07-24T00:54:47.778Z,11.80
2018-07-24T00:59:23.106Z,10.88
2018-07-24T01:03:58.811Z,11.33
2018-07-24T01:08:33.769Z,11.22
2018-07-24T01:13:08.228Z,13.00
2018-07-24T01:17:43.220Z,11.33
2018-07-24T01:22:17.375Z,11.73
2018-07-24T01:26:51.583Z,11.10
2018-07-24T01:31:25.767Z,11.73
2018-07-24T01:36:00.568Z,11.63
2018-07-24T01:40:34.395Z,11.03
2018-07-24T01:45:08.711Z,11.65
2018-07-24T01:49:43.579Z,11.20
2018-07-24T01:54:18.695Z,11.63
2018-07-24T01:58:54.915Z,12.93
2018-07-24T02:03:29.780Z,12.33
2018-07-24T02:08:05.222Z,11.88
2018-07-24T02:12:39.399Z,12.10
2018-07-24T02:17:14.600Z,11.68
2018-07-24T02:21:49.819Z,11.38
2018-07-24T02:26:25.390Z,11.65
2018-07-24T02:31:00.234Z,12.43
2018-07-24T02:35:34.524Z,12.75
2018-07-24T02:40:08.820Z,11.80
2018-07-24T02:44:42.834Z,13.22
2018-07-24T02:49:17.608Z,13.25
2018-07-24T02:53:52.107Z,12.70
2018-07-24T02:58:26.391Z,12.90
2018-07-24T03:03:02.700Z,12.55
2018-07-24T03:07:37.468Z,12.05
2018-07-24T03:12:12.404Z,12.50
2018-07-24T03:16:46.804Z,12.00
2018-07-24T03:21:21.634Z,12.53
2018-07-24T03:25:56.940Z,12.98
2018-07-24T03:30:32.735Z,13.10
2018-07-24T03:35:09.301Z,11.93
2018-07-24T03:39:43.892Z,14.35
2018-07-24T03:44:18.224Z,11.78
2018-07-24T03:48:52.515Z,12.23
2018-07-24T03:53:27.417Z,11.25
2018-07-24T03:58:01.682Z,12.25
2018-07-24T04:02:36.055Z,12.13
2018-07-24T04:07:11.280Z,11.08
2018-07-24T04:11:45.829Z,11.43
2018-07-24T04:16:19.902Z,11.83
2018-07-24T04:20:53.987Z,11.73
2018-07-24T04:25:29.525Z,11.12
2018-07-24T04:30:03.364Z,12.40
2018-07-24T04:34:38.112Z,10.48
2018-07-24T04:39:13.016Z,12.80
2018-07-24T04:43:47.283Z,10.32
2018-07-24T04:48:22.466Z,13.30
2018-07-24T04:52:57.683Z,12.85
2018-07-24T04:57:31.996Z,11.57
2018-07-24T05:02:06.903Z,12.03
2018-07-24T05:06:41.924Z,12.20
2018-07-24T05:11:16.612Z,12.50
2018-07-24T05:15:53.391Z,12.40
2018-07-24T05:20:28.138Z,13.58
2018-07-24T05:25:02.588Z,12.47
2018-07-24T05:29:37.831Z,15.23
2018-07-24T05:34:12.153Z,13.38
2018-07-24T05:38:47.084Z,17.85
2018-07-24T05:43:22.011Z,16.65
2018-07-24T05:47:56.326Z,14.60
2018-07-24T05:52:31.260Z,15.03
2018-07-24T05:57:06.923Z,18.55
2018-07-24T06:01:41.920Z,14.25
2018-07-24T06:06:16.679Z,15.18
2018-07-24T06:10:51.808Z,13.28
2018-07-24T06:15:27.017Z,15.03
2018-07-24T06:20:01.216Z,12.55
2018-07-24T06:24:36.227Z,15.23
2018-07-24T06:29:11.273Z,27.15
2018-07-24T06:33:45.488Z,17.75
2018-07-24T06:38:20.924Z,14.80
2018-07-24T06:42:55.404Z,13.22
2018-07-24T06:47:30.288Z,13.38
2018-07-24T06:52:04.520Z,12.13
2018-07-24T06:56:38.929Z,13.60
2018-07-24T07:01:13.145Z,15.05
2018-07-24T07:05:48.263Z,15.53
2018-07-24T07:10:22.837Z,12.55
2018-07-24T07:14:57.852Z,11.60
2018-07-24T07:19:32.012Z,11.03
2018-07-24T07:24:06.380Z,11.38
2018-07-24T07:28:41.079Z,10.50
2018-07-24T07:33:15.510Z,13.58
2018-07-24T07:37:50.702Z,13.00
2018-07-24T07:42:25.100Z,11.38
2018-07-24T07:47:00.807Z,17.17
2018-07-24T07:51:35.228Z,12.70
2018-07-24T07:56:09.611Z,11.22
2018-07-24T08:00:44.880Z,13.05
2018-07-24T08:05:19.771Z,18.23
2018-07-24T08:09:54.887Z,18.65
2018-07-24T08:14:29.051Z,12.30
2018-07-24T08:19:03.952Z,13.30
2018-07-24T08:23:39.142Z,11.33
2018-07-24T08:28:14.747Z,12.45
2018-07-24T08:32:49.096Z,17.32
2018-07-24T08:37:24.463Z,14.15
2018-07-24T08:41:58.799Z,12.50
2018-07-24T08:46:33.244Z,13.48
2018-07-24T08:51:07.383Z,14.68
2018-07-24T08:55:43.701Z,11.53
2018-07-24T09:00:17.891Z,12.40
2018-07-24T09:04:52.079Z,9.83
2018-07-24T09:09:28.275Z,10.98
2018-07-24T09:14:03.132Z,8.48
2018-07-24T09:18:37.416Z,7.90
2018-07-24T09:23:13.295Z,6.90
2018-07-24T09:27:48.743Z,6.37
2018-07-24T09:32:23.694Z,6.80
2018-07-24T09:36:57.958Z,7.03
2018-07-24T09:41:32.148Z,6.50
2018-07-24T09:46:06.689Z,6.62
2018-07-24T09:50:40.899Z,10.55
2018-07-24T09:55:16.523Z,6.45
2018-07-24T09:59:50.800Z,6.62
2018-07-24T10:04:25.188Z,7.85
2018-07-24T10:09:00.364Z,6.70
2018-07-24T10:13:35.390Z,8.13
2018-07-24T10:18:09.728Z,6.25
2018-07-24T10:22:43.968Z,5.87
2018-07-24T10:27:18.105Z,6.80
2018-07-24T10:31:52.392Z,6.47
2018-07-24T10:36:27.557Z,6.42
2018-07-24T10:41:01.741Z,7.25
2018-07-24T10:45:35.951Z,6.80
2018-07-24T10:50:10.244Z,6.00
2018-07-24T10:54:45.314Z,7.05
2018-07-24T10:59:19.339Z,5.50
2018-07-24T11:03:54.620Z,6.60
2018-07-24T11:08:29.511Z,6.25
2018-07-24T11:13:04.388Z,8.50
2018-07-24T11:17:38.569Z,7.62
2018-07-24T11:22:12.845Z,6.10
2018-07-24T11:26:48.371Z,5.25
2018-07-24T11:31:23.464Z,6.37
2018-07-24T11:35:58.672Z,6.12
2018-07-24T11:40:32.714Z,6.37
2018-07-24T11:45:07.310Z,6.70
2018-07-24T11:49:41.512Z,6.25
2018-07-24T11:54:15.880Z,6.28
2018-07-24T11:58:50.727Z,6.17
2018-07-24T12:03:25.536Z,6.42
2018-07-24T12:07:59.899Z,6.25
2018-07-24T12:12:34.167Z,6.60
2018-07-24T12:17:08.376Z,6.62
2018-07-24T12:21:43.195Z,6.35
2018-07-24T12:26:17.564Z,7.03
2018-07-24T12:30:51.744Z,6.97
2018-07-24T12:35:26.085Z,5.70
2018-07-24T12:40:01.100Z,6.65
2018-07-24T12:44:35.019Z,5.95
2018-07-24T12:49:09.660Z,5.80
2018-07-24T12:53:44.291Z,7.47
2018-07-24T12:58:18.833Z,6.37
2018-07-24T13:02:53.140Z,6.50
2018-07-24T13:07:27.362Z,15.50
2018-07-24T13:12:01.804Z,6.33
2018-07-24T13:16:36.333Z,7.55
2018-07-24T13:21:10.460Z,6.95
2018-07-24T13:25:45.696Z,6.72
2018-07-24T13:30:19.889Z,6.33
2018-07-24T13:34:54.855Z,6.60
2018-07-24T13:39:29.055Z,6.28
2018-07-24T13:44:03.671Z,6.47
2018-07-24T13:48:38.512Z,7.37
2018-07-24T13:53:13.811Z,7.33
2018-07-24T13:57:48.099Z,7.58
2018-07-24T14:02:23.091Z,6.33
2018-07-24T14:06:57.730Z,7.35
2018-07-24T14:11:32.564Z,6.67
2018-07-24T14:16:07.514Z,7.65
2018-07-24T14:20:42.452Z,6.78
2018-07-24T14:25:17.280Z,7.17
2018-07-24T14:29:52.978Z,7.55
2018-07-24T14:34:27.204Z,7.58
2018-07-24T14:39:01.440Z,6.85
2018-07-24T14:43:36.601Z,7.20
2018-07-24T14:48:11.539Z,8.25
2018-07-24T14:52:46.224Z,7.40
2018-07-24T14:57:21.036Z,7.28
2018-07-24T15:01:55.532Z,7.40
2018-07-24T15:06:30.168Z,8.13
2018-07-24T15:11:04.465Z,7.67
2018-07-24T15:15:39.532Z,7.95
2018-07-24T15:20:14.515Z,6.97
2018-07-24T15:24:50.048Z,7.53
2018-07-24T15:29:24.508Z,6.80
2018-07-24T15:34:00.187Z,7.40
2018-07-24T15:38:34.528Z,7.08
2018-07-24T15:43:09.028Z,6.95
2018-07-24T15:47:45.020Z,7.53
2018-07-24T15:52:19.376Z,7.03
2018-07-24T15:56:54.427Z,7.00
2018-07-24T16:01:28.800Z,6.92
2018-07-24T16:06:03.159Z,7.87
2018-07-24T16:10:38.292Z,7.47
2018-07-24T16:15:12.781Z,7.30
2018-07-24T16:19:47.167Z,7.28
2018-07-24T16:24:22.724Z,8.33
2018-07-24T16:28:58.399Z,7.60
2018-07-24T16:33:32.798Z,7.62
2018-07-24T16:38:08.084Z,7.85
2018-07-24T16:42:42.376Z,8.33
2018-07-24T16:47:16.905Z,7.70
2018-07-24T16:51:51.441Z,7.65
2018-07-24T16:56:25.927Z,8.10
2018-07-24T17:01:00.812Z,8.05
2018-07-24T17:05:34.819Z,8.30
2018-07-24T17:10:09.520Z,7.70
2018-07-24T17:14:43.965Z,7.08
2018-07-24T17:19:18.225Z,7.80
2018-07-24T17:23:54.000Z,7.72
2018-07-24T17:28:28.763Z,7.70
2018-07-24T17:33:03.147Z,7.33
2018-07-24T17:37:37.680Z,8.03
2018-07-24T17:42:11.941Z,7.65
2018-07-24T17:46:46.279Z,8.10
2018-07-24T17:51:20.617Z,7.70
2018-07-24T17:55:54.908Z,7.83
2018-07-24T18:00:29.434Z,7.95
2018-07-24T18:05:04.818Z,7.87
2018-07-24T18:09:39.674Z,8.55
2018-07-24T18:14:14.421Z,11.12
2018-07-24T18:18:48.789Z,8.48
2018-07-24T18:23:23.643Z,11.95
2018-07-24T18:27:58.145Z,14.23
2018-07-24T18:32:32.396Z,10.53
2018-07-24T18:37:06.687Z,19.48
2018-07-24T18:41:41.968Z,23.60
2018-07-24T18:46:16.200Z,16.25
2018-07-24T18:50:50.346Z,10.23
2018-07-24T18:55:26.493Z,13.00
2018-07-24T19:00:01.380Z,14.07
2018-07-24T19:04:36.420Z,16.12
2018-07-24T19:09:12.215Z,10.23
2018-07-24T19:13:46.984Z,11.88
2018-07-24T19:18:21.804Z,12.10
2018-07-24T19:22:56.101Z,12.55
2018-07-24T19:27:31.007Z,12.95
2018-07-24T19:32:06.037Z,12.65
2018-07-24T19:36:40.932Z,13.05
2018-07-24T19:41:17.163Z,12.60
2018-07-24T19:45:53.250Z,12.82
2018-07-24T19:50:29.299Z,13.25
2018-07-24T19:55:03.509Z,13.08
2018-07-24T19:59:37.875Z,12.78
2018-07-24T20:04:12.092Z,12.82
2018-07-24T20:08:46.702Z,13.80
2018-07-24T20:13:21.501Z,13.62
2018-07-24T20:17:56.308Z,12.93
2018-07-24T20:22:30.610Z,14.23
2018-07-24T20:27:04.823Z,13.18
2018-07-24T20:31:39.068Z,13.50
2018-07-24T20:36:14.217Z,13.98
2018-07-24T20:40:48.553Z,13.28
2018-07-24T20:45:22.756Z,13.88
2018-07-24T20:49:57.247Z,14.45
2018-07-24T20:54:33.514Z,14.23
2018-07-24T20:59:07.708Z,13.70
2018-07-24T21:03:42.173Z,14.90
2018-07-24T21:08:16.354Z,14.47
2018-07-24T21:12:51.172Z,13.90
2018-07-24T21:17:26.005Z,13.65
2018-07-24T21:22:01.235Z,14.00
2018-07-24T21:26:36.192Z,13.72
2018-07-24T21:31:10.027Z,14.15
2018-07-24T21:35:46.043Z,15.10
2018-07-24T21:40:21.645Z,14.30
2018-07-24T21:44:55.840Z,13.83
2018-07-24T21:49:30.037Z,14.55
2018-07-24T21:54:04.252Z,15.98
2018-07-24T21:58:38.749Z,14.87
2018-07-24T22:03:13.010Z,15.63
2018-07-24T22:07:47.764Z,14.75
2018-07-24T22:12:22.639Z,15.45
2018-07-24T22:16:57.756Z,15.93
2018-07-24T22:21:32.040Z,16.40
2018-07-24T22:26:07.088Z,15.65
2018-07-24T22:30:41.322Z,15.45
2018-07-24T22:35:16.809Z,15.53
2018-07-24T22:39:51.214Z,16.07
2018-07-24T22:44:26.076Z,16.50
2018-07-24T22:49:00.297Z,17.07
2018-07-24T22:53:34.436Z,16.73
2018-07-24T22:58:08.983Z,16.67
2018-07-24T23:02:43.240Z,18.45
2018-07-24T23:07:18.355Z,18.20
2018-07-24T23:11:54.307Z,17.42
2018-07-24T23:16:29.756Z,17.65
2018-07-24T23:21:03.999Z,18.10
2018-07-24T23:25:40.821Z,17.42
2018-07-24T23:30:15.667Z,17.82
2018-07-24T23:34:50.080Z,18.20
2018-07-24T23:39:24.224Z,17.70
2018-07-24T23:43:59.045Z,18.62
2018-07-24T23:48:33.860Z,18.77
2018-07-24T23:53:08.840Z,18.55
2018-07-24T23:57:43.957Z,18.57
